createdAt,value
2023-03-22T00:02:14.087Z,7.17
2023-03-22T00:04:43.132Z,7.16
2023-03-22T00:07:09.727Z,7.15
2023-03-22T00:09:36.683Z,7.14
2023-03-22T00:12:03.868Z,7.07
2023-03-22T00:14:30.506Z,7.04
2023-03-22T00:16:57.535Z,6.96
2023-03-22T00:19:24.181Z,6.91
2023-03-22T00:21:51.434Z,6.98
2023-03-22T00:24:18.371Z,7.10
2023-03-22T00:26:47.386Z,7.16
2023-03-22T00:29:14.396Z,7.40
2023-03-22T00:31:41.656Z,7.52
2023-03-22T00:34:08.673Z,7.48
2023-03-22T00:36:37.831Z,7.39
2023-03-22T00:39:04.672Z,7.24
2023-03-22T00:41:31.563Z,7.12
2023-03-22T00:43:58.180Z,7.02
2023-03-22T00:46:25.124Z,6.96
2023-03-22T00:48:51.905Z,7.01
2023-03-22T00:51:18.691Z,7.35
2023-03-22T00:53:45.725Z,7.68
2023-03-22T00:56:14.208Z,7.90
2023-03-22T00:58:51.307Z,7.85
2023-03-22T01:01:18.039Z,7.71
2023-03-22T01:03:44.903Z,7.50
2023-03-22T01:06:14.830Z,7.30
2023-03-22T01:08:41.457Z,7.11
2023-03-22T01:11:09.583Z,6.95
2023-03-22T01:13:41.934Z,6.77
2023-03-22T01:16:09.834Z,6.60
2023-03-22T01:18:36.836Z,6.34
2023-03-22T01:21:03.734Z,6.25
2023-03-22T01:23:30.914Z,6.31
2023-03-22T01:25:57.828Z,6.24
2023-03-22T01:28:26.960Z,6.19
2023-03-22T01:30:54.639Z,6.02
2023-03-22T01:33:21.477Z,5.89
2023-03-22T01:35:48.434Z,5.82
2023-03-22T01:38:15.571Z,5.70
2023-03-22T01:40:50.583Z,5.69
2023-03-22T01:43:17.695Z,5.68
2023-03-22T01:45:49.970Z,5.65
2023-03-22T01:48:33.740Z,5.67
2023-03-22T01:51:13.743Z,5.72
2023-03-22T01:54:05.766Z,5.73
2023-03-22T01:56:36.317Z,5.66
2023-03-22T01:59:06.399Z,5.56
2023-03-22T02:01:52.668Z,5.37
2023-03-22T02:04:23.675Z,5.23
2023-03-22T02:06:54.377Z,5.26
2023-03-22T02:09:22.105Z,5.21
2023-03-22T02:12:03.588Z,5.20
2023-03-22T02:14:47.799Z,5.21
2023-03-22T02:18:11.511Z,5.13
2023-03-22T02:21:06.405Z,5.04
2023-03-22T02:23:51.960Z,5.01
2023-03-22T02:26:46.865Z,4.95
2023-03-22T02:29:26.403Z,5.03
2023-03-22T02:32:30.887Z,4.95
2023-03-22T02:34:57.607Z,4.89
2023-03-22T02:37:33.912Z,4.81
2023-03-22T02:40:12.000Z,4.79
2023-03-22T02:42:55.775Z,4.65
2023-03-22T02:45:34.001Z,4.47
2023-03-22T02:48:09.663Z,4.28
2023-03-22T02:50:53.678Z,4.25
2023-03-22T02:53:23.239Z,4.16
2023-03-22T02:56:02.314Z,4.00
2023-03-22T02:58:45.669Z,3.89
2023-03-22T03:01:24.400Z,4.20
2023-03-22T03:03:55.436Z,3.93
2023-03-22T03:06:25.874Z,3.66
2023-03-22T03:08:54.476Z,3.44
2023-03-22T03:11:21.577Z,3.32
2023-03-22T03:13:50.494Z,3.30
2023-03-22T03:16:21.527Z,3.31
2023-03-22T03:19:05.781Z,3.49
2023-03-22T03:21:45.426Z,3.51
2023-03-22T03:24:44.634Z,3.44
2023-03-22T03:27:30.130Z,3.45
2023-03-22T03:30:13.983Z,3.37
2023-03-22T03:32:49.692Z,3.38
2023-03-22T03:35:25.421Z,3.31
2023-03-22T03:37:54.073Z,3.31
2023-03-22T03:40:26.499Z,3.51
2023-03-22T03:42:56.261Z,3.49
2023-03-22T03:45:25.066Z,3.52
2023-03-22T03:47:58.201Z,3.51
2023-03-22T03:50:26.029Z,3.47
2023-03-22T03:52:55.215Z,3.49
2023-03-22T03:55:22.911Z,3.65
2023-03-22T03:57:49.647Z,3.75
2023-03-22T04:00:17.031Z,3.80
2023-03-22T04:03:05.789Z,3.76
2023-03-22T04:05:50.303Z,3.82
2023-03-22T04:08:17.103Z,3.76
2023-03-22T04:10:48.649Z,3.65
2023-03-22T04:13:15.324Z,3.77
2023-03-22T04:15:42.604Z,3.75
2023-03-22T04:18:14.014Z,3.69
2023-03-22T04:20:41.776Z,3.70
2023-03-22T04:23:11.551Z,3.69
2023-03-22T04:25:38.826Z,3.78
2023-03-22T04:28:09.979Z,3.88
2023-03-22T04:30:37.347Z,3.82
2023-03-22T04:33:23.332Z,3.88
2023-03-22T04:36:17.448Z,3.89
2023-03-22T04:38:59.212Z,3.87
2023-03-22T04:41:25.880Z,3.82
2023-03-22T04:43:57.840Z,3.87
2023-03-22T04:46:24.599Z,3.86
2023-03-22T04:49:01.604Z,3.76
2023-03-22T04:51:28.695Z,3.71
2023-03-22T04:54:09.070Z,3.71
2023-03-22T04:56:39.305Z,3.64
2023-03-22T04:59:06.412Z,3.65
2023-03-22T05:01:33.900Z,3.55
2023-03-22T05:04:09.748Z,3.52
2023-03-22T05:06:37.242Z,3.46
2023-03-22T05:09:13.544Z,3.38
2023-03-22T05:11:40.893Z,3.26
2023-03-22T05:14:34.064Z,3.20
2023-03-22T05:17:01.064Z,3.20
2023-03-22T05:19:28.249Z,3.21
2023-03-22T05:21:58.500Z,3.18
2023-03-22T05:24:57.603Z,3.15
2023-03-22T05:27:31.667Z,3.12
2023-03-22T05:30:17.191Z,3.14
2023-03-22T05:32:51.020Z,3.14
2023-03-22T05:35:18.447Z,3.26
2023-03-22T05:37:51.573Z,3.30
2023-03-22T05:40:18.967Z,3.43
2023-03-22T05:42:46.124Z,3.42
2023-03-22T05:45:18.740Z,3.43
2023-03-22T05:47:50.646Z,3.42
2023-03-22T05:50:23.153Z,3.58
2023-03-22T05:52:52.008Z,3.49
2023-03-22T05:55:51.327Z,3.76
2023-03-22T05:58:19.150Z,3.91
2023-03-22T06:00:49.910Z,4.14
2023-03-22T06:03:25.814Z,4.08
2023-03-22T06:06:00.876Z,4.10
2023-03-22T06:08:43.505Z,4.27
2023-03-22T06:11:10.380Z,4.39
2023-03-22T06:13:37.856Z,4.49
2023-03-22T06:16:06.178Z,4.62
2023-03-22T06:18:33.759Z,4.71
2023-03-22T06:21:08.280Z,4.85
2023-03-22T06:23:35.099Z,4.96
2023-03-22T06:26:01.943Z,5.00
2023-03-22T06:28:29.912Z,5.08
2023-03-22T06:30:58.267Z,5.15
2023-03-22T06:33:45.521Z,5.33
2023-03-22T06:36:35.319Z,5.61
2023-03-22T06:39:14.698Z,5.76
2023-03-22T06:41:44.009Z,6.03
2023-03-22T06:44:10.808Z,6.20
2023-03-22T06:47:00.588Z,6.42
2023-03-22T06:49:57.046Z,6.68
2023-03-22T06:52:27.705Z,6.94
2023-03-22T06:54:56.831Z,7.04
2023-03-22T06:57:24.200Z,7.12
2023-03-22T06:59:51.357Z,7.15
2023-03-22T07:02:18.103Z,7.15
2023-03-22T07:05:05.155Z,7.39
2023-03-22T07:07:31.922Z,7.46
2023-03-22T07:09:58.791Z,7.55
2023-03-22T07:12:25.523Z,7.74
2023-03-22T07:14:52.494Z,8.00
2023-03-22T07:17:32.597Z,8.32
2023-03-22T07:19:59.439Z,8.56
2023-03-22T07:22:27.423Z,8.49
2023-03-22T07:24:58.179Z,8.34
2023-03-22T07:27:28.339Z,8.53
2023-03-22T07:29:55.389Z,8.66
2023-03-22T07:32:22.228Z,9.04
2023-03-22T07:35:04.228Z,9.03
2023-03-22T07:37:31.211Z,9.14
2023-03-22T07:39:57.838Z,9.37
2023-03-22T07:42:28.574Z,9.56
2023-03-22T07:45:27.641Z,9.71
2023-03-22T07:48:34.451Z,10.05
2023-03-22T07:51:23.003Z,10.35
2023-03-22T07:53:50.371Z,10.68
2023-03-22T07:56:17.048Z,11.00
2023-03-22T07:58:43.740Z,11.42
2023-03-22T08:01:10.814Z,11.60
2023-03-22T08:03:58.721Z,11.91
2023-03-22T08:06:58.705Z,11.96
2023-03-22T08:09:26.758Z,12.33
2023-03-22T08:11:53.497Z,12.14
2023-03-22T08:14:27.433Z,12.31
2023-03-22T08:17:05.618Z,12.47
2023-03-22T08:19:34.085Z,12.47
2023-03-22T08:22:01.221Z,12.47
2023-03-22T08:24:47.757Z,12.31
2023-03-22T08:27:25.610Z,12.64
2023-03-22T08:29:52.209Z,12.89
2023-03-22T08:32:19.478Z,13.02
2023-03-22T08:34:46.594Z,13.02
2023-03-22T08:37:13.545Z,13.21
2023-03-22T08:39:43.499Z,13.40
2023-03-22T08:42:21.113Z,13.48
2023-03-22T08:44:48.427Z,13.70
2023-03-22T08:47:15.487Z,13.91
2023-03-22T08:49:43.360Z,14.31
2023-03-22T08:52:22.844Z,14.51
2023-03-22T08:55:10.116Z,14.44
2023-03-22T08:57:59.056Z,14.95
2023-03-22T09:00:47.352Z,15.30
2023-03-22T09:03:29.783Z,15.71
2023-03-22T09:05:57.479Z,15.36
2023-03-22T09:08:24.405Z,15.52
2023-03-22T09:10:57.400Z,15.83
2023-03-22T09:13:24.042Z,15.40
2023-03-22T09:15:58.074Z,15.82
2023-03-22T09:18:28.344Z,16.07
2023-03-22T09:21:00.284Z,15.93
2023-03-22T09:23:34.260Z,16.17
2023-03-22T09:26:03.128Z,16.52
2023-03-22T09:28:30.931Z,16.73
2023-03-22T09:31:05.364Z,16.95
2023-03-22T09:33:32.464Z,16.35
2023-03-22T09:35:59.862Z,17.19
2023-03-22T09:38:27.186Z,17.27
2023-03-22T09:41:00.855Z,17.38
2023-03-22T09:43:35.723Z,17.70
2023-03-22T09:46:06.623Z,17.41
2023-03-22T09:48:37.387Z,17.68
2023-03-22T09:51:07.588Z,18.20
2023-03-22T09:53:34.258Z,18.62
2023-03-22T09:56:10.519Z,18.90
2023-03-22T09:58:46.952Z,19.30
2023-03-22T10:01:29.094Z,19.58
2023-03-22T10:04:10.096Z,19.94
2023-03-22T10:06:36.685Z,19.95
2023-03-22T10:09:13.960Z,20.05
2023-03-22T10:11:49.333Z,19.62
2023-03-22T10:14:30.902Z,20.26
2023-03-22T10:17:03.674Z,18.97
2023-03-22T10:20:06.018Z,19.73
2023-03-22T10:22:36.508Z,20.00
2023-03-22T10:25:06.831Z,19.57
2023-03-22T10:27:36.020Z,19.65
2023-03-22T10:30:21.923Z,19.69
2023-03-22T10:32:58.331Z,20.62
2023-03-22T10:35:25.970Z,21.20
2023-03-22T10:37:54.775Z,21.81
2023-03-22T10:40:36.295Z,21.31
2023-03-22T10:43:08.097Z,21.39
2023-03-22T10:45:36.458Z,21.77
2023-03-22T10:48:11.749Z,22.10
2023-03-22T10:50:43.097Z,22.23
2023-03-22T10:53:28.872Z,22.10
2023-03-22T10:55:56.585Z,22.29
2023-03-22T10:58:32.937Z,21.49
2023-03-22T11:01:05.907Z,22.66
2023-03-22T11:03:36.176Z,22.67
2023-03-22T11:06:06.626Z,22.53
2023-03-22T11:08:40.862Z,22.22
2023-03-22T11:11:20.020Z,23.37
2023-03-22T11:13:51.986Z,22.72
2023-03-22T11:16:20.178Z,23.01
2023-03-22T11:18:47.180Z,23.35
2023-03-22T11:21:16.865Z,23.07
2023-03-22T11:23:58.625Z,22.90
2023-03-22T11:26:28.544Z,22.73
2023-03-22T11:29:02.671Z,22.69
2023-03-22T11:31:49.482Z,23.03
2023-03-22T11:34:18.758Z,22.69
2023-03-22T11:36:54.798Z,23.10
2023-03-22T11:39:22.231Z,23.26
2023-03-22T11:41:49.128Z,24.35
2023-03-22T11:44:38.429Z,23.76
2023-03-22T11:47:09.095Z,22.99
2023-03-22T11:49:38.861Z,23.22
2023-03-22T11:52:31.691Z,23.32
2023-03-22T11:55:00.051Z,23.86
2023-03-22T11:57:30.203Z,24.14
2023-03-22T12:00:12.037Z,24.77
2023-03-22T12:02:47.313Z,24.17
2023-03-22T12:05:49.451Z,24.44
2023-03-22T12:08:46.284Z,24.30
2023-03-22T12:11:28.240Z,24.87
2023-03-22T12:14:00.163Z,24.90
2023-03-22T12:16:32.829Z,25.13
2023-03-22T12:19:20.642Z,25.36
2023-03-22T12:21:49.398Z,25.54
2023-03-22T12:24:36.444Z,25.26
2023-03-22T12:27:25.609Z,25.48
2023-03-22T12:29:59.340Z,26.13
2023-03-22T12:32:30.818Z,25.53
2023-03-22T12:35:14.104Z,25.70
2023-03-22T12:37:46.294Z,25.75
2023-03-22T12:40:19.630Z,26.22
2023-03-22T12:43:08.135Z,26.06
2023-03-22T12:45:41.066Z,25.80
2023-03-22T12:48:22.567Z,24.82
2023-03-22T12:51:06.204Z,25.20
2023-03-22T12:53:42.489Z,25.81
2023-03-22T12:56:22.045Z,25.75
2023-03-22T12:58:54.470Z,26.07
2023-03-22T13:01:30.229Z,26.58
2023-03-22T13:03:59.418Z,28.04
2023-03-22T13:06:53.532Z,28.70
2023-03-22T13:09:36.934Z,27.04
2023-03-22T13:12:16.444Z,25.54
2023-03-22T13:14:51.951Z,24.64
2023-03-22T13:17:24.929Z,24.92
2023-03-22T13:20:07.768Z,25.71
2023-03-22T13:22:37.810Z,25.54
2023-03-22T13:25:08.483Z,25.46
2023-03-22T13:27:38.007Z,27.03
2023-03-22T13:30:33.362Z,26.24
2023-03-22T13:33:08.732Z,26.18
2023-03-22T13:35:50.847Z,26.34
2023-03-22T13:38:24.822Z,26.72
2023-03-22T13:41:28.801Z,26.40
2023-03-22T13:43:58.327Z,26.98
2023-03-22T13:46:24.897Z,27.34
2023-03-22T13:49:16.284Z,27.53
2023-03-22T13:51:44.640Z,26.31
2023-03-22T13:54:14.884Z,25.93
2023-03-22T13:56:44.543Z,26.06
2023-03-22T13:59:20.051Z,24.77
2023-03-22T14:01:49.429Z,25.69
2023-03-22T14:04:56.533Z,26.11
2023-03-22T14:07:35.450Z,27.12
2023-03-22T14:10:05.541Z,26.87
2023-03-22T14:12:45.368Z,26.39
2023-03-22T14:15:17.830Z,27.75
2023-03-22T14:17:56.639Z,27.75
2023-03-22T14:20:30.536Z,28.22
